createdAt,value
2017-08-31T00:00:24.458Z,6.50
2017-08-31T00:02:56.112Z,6.77
2017-08-31T00:05:24.592Z,6.70
2017-08-31T00:07:56.453Z,8.63
2017-08-31T00:10:25.444Z,15.13
2017-08-31T00:12:53.822Z,6.87
2017-08-31T00:15:22.712Z,7.27
2017-08-31T00:17:52.421Z,6.13
2017-08-31T00:20:20.799Z,5.40
2017-08-31T00:22:49.074Z,8.60
2017-08-31T00:25:17.543Z,6.43
2017-08-31T00:27:45.932Z,4.33
2017-08-31T00:30:14.310Z,7.10
2017-08-31T00:32:42.585Z,5.97
2017-08-31T00:35:10.947Z,5.87
2017-08-31T00:37:39.140Z,7.80
2017-08-31T00:40:07.503Z,7.93
2017-08-31T00:42:35.994Z,7.53
2017-08-31T00:45:10.500Z,5.07
2017-08-31T00:47:40.225Z,3.67
2017-08-31T00:50:09.398Z,5.20
2017-08-31T00:52:37.998Z,7.20
2017-08-31T00:55:08.226Z,5.97
2017-08-31T00:57:36.597Z,6.83
2017-08-31T01:00:06.825Z,3.47
2017-08-31T01:02:35.100Z,5.20
2017-08-31T01:05:03.264Z,11.03
2017-08-31T01:07:31.446Z,5.70
2017-08-31T01:10:00.436Z,6.40
2017-08-31T01:12:28.611Z,9.53
2017-08-31T01:14:56.781Z,6.27
2017-08-31T01:17:25.059Z,8.90
2017-08-31T01:19:53.335Z,7.67
2017-08-31T01:22:21.610Z,6.63
2017-08-31T01:24:50.395Z,7.90
2017-08-31T01:27:20.234Z,5.17
2017-08-31T01:29:49.509Z,11.80
2017-08-31T01:32:17.991Z,8.10
2017-08-31T01:34:47.305Z,9.77
2017-08-31T01:37:16.578Z,4.60
2017-08-31T01:39:50.188Z,6.30
2017-08-31T01:42:18.465Z,6.83
2017-08-31T01:44:47.868Z,9.53
2017-08-31T01:47:16.133Z,10.50
2017-08-31T01:49:44.420Z,6.23
2017-08-31T01:52:12.804Z,11.90
2017-08-31T01:54:43.225Z,5.37
2017-08-31T01:57:11.801Z,8.73
2017-08-31T01:59:45.908Z,8.07
2017-08-31T02:02:14.608Z,8.27
2017-08-31T02:04:44.522Z,6.37
2017-08-31T02:07:12.798Z,13.83
2017-08-31T02:09:41.500Z,10.60
2017-08-31T02:12:10.784Z,13.60
2017-08-31T02:14:39.470Z,10.40
2017-08-31T02:17:07.835Z,7.83
2017-08-31T02:19:36.227Z,7.63
2017-08-31T02:22:04.606Z,7.30
2017-08-31T02:24:33.190Z,10.97
2017-08-31T02:27:02.899Z,9.47
2017-08-31T02:29:31.117Z,7.07
2017-08-31T02:32:00.041Z,6.70
2017-08-31T02:34:28.548Z,9.00
2017-08-31T02:36:56.824Z,8.80
2017-08-31T02:39:25.100Z,15.00
2017-08-31T02:41:56.836Z,5.77
2017-08-31T02:44:25.032Z,8.70
2017-08-31T02:46:53.437Z,8.97
2017-08-31T02:49:21.789Z,10.03
2017-08-31T02:51:50.248Z,13.20
2017-08-31T02:54:19.980Z,6.07
2017-08-31T02:56:48.665Z,6.70
2017-08-31T02:59:17.148Z,10.73
2017-08-31T03:01:48.055Z,7.40
2017-08-31T03:04:17.079Z,9.83
2017-08-31T03:06:45.458Z,6.87
2017-08-31T03:09:23.636Z,13.13
2017-08-31T03:11:53.651Z,8.63
2017-08-31T03:14:23.393Z,7.50
2017-08-31T03:16:51.944Z,9.93
2017-08-31T03:19:28.445Z,8.83
2017-08-31T03:22:02.763Z,8.57
2017-08-31T03:24:36.466Z,6.87
2017-08-31T03:27:10.681Z,7.20
2017-08-31T03:29:40.968Z,8.53
2017-08-31T03:32:10.788Z,8.27
2017-08-31T03:34:40.286Z,7.77
2017-08-31T03:37:08.354Z,11.27
2017-08-31T03:39:45.579Z,15.73
2017-08-31T03:42:15.770Z,6.40
2017-08-31T03:44:44.198Z,8.10
2017-08-31T03:47:13.278Z,12.83
2017-08-31T03:49:42.268Z,9.13
2017-08-31T03:52:11.364Z,7.00
2017-08-31T03:54:39.742Z,13.77
2017-08-31T03:57:09.452Z,5.93
2017-08-31T03:59:43.647Z,11.30
2017-08-31T04:02:13.732Z,6.27
2017-08-31T04:04:43.345Z,11.87
2017-08-31T04:07:11.876Z,8.73
2017-08-31T04:09:42.255Z,7.90
2017-08-31T04:12:12.575Z,11.13
2017-08-31T04:14:42.273Z,14.03
2017-08-31T04:17:12.918Z,7.30
2017-08-31T04:19:43.037Z,8.17
2017-08-31T04:22:12.183Z,9.13
2017-08-31T04:24:40.971Z,6.73
2017-08-31T04:27:10.088Z,10.70
2017-08-31T04:29:38.856Z,7.30
2017-08-31T04:32:08.921Z,11.23
2017-08-31T04:34:37.298Z,12.70
2017-08-31T04:37:06.291Z,6.77
2017-08-31T04:39:36.103Z,12.73
2017-08-31T04:42:05.197Z,10.17
2017-08-31T04:44:33.473Z,9.87
2017-08-31T04:47:06.031Z,13.53
2017-08-31T04:49:34.629Z,8.93
2017-08-31T04:52:08.335Z,12.30
2017-08-31T04:54:37.020Z,17.63
2017-08-31T04:57:10.325Z,8.47
2017-08-31T04:59:38.589Z,11.13
2017-08-31T05:02:09.834Z,11.70
2017-08-31T05:04:39.229Z,14.10
2017-08-31T05:07:07.716Z,15.43
2017-08-31T05:09:38.637Z,14.60
2017-08-31T05:12:06.930Z,10.67
2017-08-31T05:14:36.125Z,14.70
2017-08-31T05:17:05.390Z,9.77
2017-08-31T05:19:35.639Z,13.53
2017-08-31T05:22:04.128Z,15.23
2017-08-31T05:24:33.521Z,17.80
2017-08-31T05:27:02.011Z,16.77
2017-08-31T05:29:31.106Z,13.57
2017-08-31T05:32:00.405Z,15.60
2017-08-31T05:34:29.287Z,14.07
2017-08-31T05:36:57.738Z,15.53
2017-08-31T05:39:26.860Z,13.53
2017-08-31T05:41:55.852Z,14.93
2017-08-31T05:44:27.141Z,20.30
2017-08-31T05:46:56.411Z,15.03
2017-08-31T05:49:25.707Z,13.80
2017-08-31T05:51:55.415Z,12.67
2017-08-31T05:54:28.607Z,11.87
2017-08-31T05:56:58.213Z,13.07
2017-08-31T05:59:27.092Z,12.53
2017-08-31T06:01:56.506Z,10.93
2017-08-31T06:04:24.883Z,10.23
2017-08-31T06:06:54.593Z,10.60
2017-08-31T06:09:22.971Z,13.47
2017-08-31T06:11:51.653Z,11.43
2017-08-31T06:14:22.286Z,14.20
2017-08-31T06:16:50.665Z,13.80
2017-08-31T06:19:21.296Z,12.50
2017-08-31T06:24:27.045Z,14.43
2017-08-31T06:26:56.260Z,11.20
2017-08-31T06:29:27.188Z,12.43
2017-08-31T06:31:55.006Z,11.27
2017-08-31T06:34:23.749Z,8.90
2017-08-31T06:36:51.819Z,12.83
2017-08-31T06:39:22.758Z,10.27
2017-08-31T06:41:52.556Z,14.57
2017-08-31T06:44:29.958Z,11.50
2017-08-31T06:46:58.464Z,13.50
2017-08-31T06:49:28.250Z,17.30
2017-08-31T06:51:58.881Z,12.87
2017-08-31T06:54:27.756Z,11.40
2017-08-31T06:56:55.945Z,10.07
2017-08-31T06:59:25.245Z,11.40
2017-08-31T07:01:55.265Z,12.07
2017-08-31T07:04:23.537Z,14.77
2017-08-31T07:06:51.914Z,10.87
2017-08-31T07:09:20.088Z,14.07
2017-08-31T07:11:49.696Z,11.07
2017-08-31T07:14:18.072Z,15.00
2017-08-31T07:16:46.347Z,12.90
2017-08-31T07:19:14.624Z,17.20
2017-08-31T07:21:43.002Z,9.30
2017-08-31T07:24:11.988Z,16.60
2017-08-31T07:26:40.372Z,11.23
2017-08-31T07:29:08.751Z,11.57
2017-08-31T07:31:38.052Z,19.93
2017-08-31T07:34:06.430Z,12.20
2017-08-31T07:36:34.807Z,9.73
2017-08-31T07:39:02.981Z,9.27
2017-08-31T07:41:38.019Z,14.43
2017-08-31T07:44:06.599Z,9.10
2017-08-31T07:46:34.976Z,7.30
2017-08-31T07:49:03.662Z,6.63
2017-08-31T07:51:31.942Z,6.63
2017-08-31T07:54:00.318Z,9.53
2017-08-31T07:56:28.594Z,7.00
2017-08-31T07:58:56.871Z,9.37
2017-08-31T08:01:25.761Z,6.53
2017-08-31T08:03:54.643Z,6.53
2017-08-31T08:06:23.236Z,7.63
2017-08-31T08:08:51.511Z,5.90
2017-08-31T08:11:19.787Z,5.43
2017-08-31T08:13:48.576Z,6.50
2017-08-31T08:16:17.046Z,7.40
2017-08-31T08:18:45.333Z,7.30
2017-08-31T08:21:15.555Z,3.43
2017-08-31T08:23:43.934Z,4.20
2017-08-31T08:26:12.511Z,7.97
2017-08-31T08:28:43.353Z,1.97
2017-08-31T08:31:12.040Z,1.93
2017-08-31T08:33:41.544Z,3.07
2017-08-31T08:36:10.742Z,2.93
2017-08-31T08:38:43.933Z,3.90
2017-08-31T08:41:13.234Z,2.00
2017-08-31T08:43:44.173Z,0.80
2017-08-31T08:46:12.303Z,0.80
2017-08-31T08:48:41.319Z,1.07
2017-08-31T08:53:46.186Z,0.97
2017-08-31T08:56:18.569Z,1.80
2017-08-31T08:58:49.907Z,1.30
2017-08-31T09:01:18.388Z,2.33
2017-08-31T09:03:48.507Z,1.23
2017-08-31T09:06:18.729Z,1.10
2017-08-31T09:08:47.789Z,1.37
2017-08-31T09:11:16.408Z,2.40
2017-08-31T09:13:45.144Z,5.90
2017-08-31T09:16:13.624Z,2.83
2017-08-31T09:18:44.587Z,3.03
2017-08-31T09:21:13.404Z,2.00
2017-08-31T09:23:42.398Z,1.67
2017-08-31T09:26:13.074Z,2.70
2017-08-31T09:28:41.074Z,1.23
2017-08-31T09:31:10.816Z,3.70
2017-08-31T09:33:39.232Z,1.20
2017-08-31T09:36:07.261Z,1.80
2017-08-31T09:38:36.421Z,1.43
2017-08-31T09:41:04.980Z,1.20
2017-08-31T09:43:33.420Z,1.10
2017-08-31T09:46:01.940Z,3.77
2017-08-31T09:48:30.960Z,1.23
2017-08-31T09:51:02.400Z,7.67
2017-08-31T09:53:32.567Z,1.30
2017-08-31T09:56:04.939Z,1.77
2017-08-31T09:58:33.010Z,1.33
2017-08-31T10:01:02.720Z,0.80
2017-08-31T10:03:35.805Z,1.30
2017-08-31T10:06:08.345Z,3.67
2017-08-31T10:08:36.592Z,2.10
2017-08-31T10:11:04.662Z,2.20
2017-08-31T10:13:35.498Z,1.33
2017-08-31T10:16:04.666Z,3.00
2017-08-31T10:18:36.291Z,1.37
2017-08-31T10:21:04.757Z,3.90
2017-08-31T10:23:33.412Z,1.40
2017-08-31T10:26:01.410Z,1.40
2017-08-31T10:28:30.666Z,1.47
2017-08-31T10:30:59.672Z,2.60
2017-08-31T10:33:28.767Z,1.40
2017-08-31T10:35:58.538Z,5.17
2017-08-31T10:38:27.754Z,1.37
2017-08-31T10:40:59.820Z,1.20
2017-08-31T10:43:32.704Z,4.17
2017-08-31T10:46:02.396Z,1.83
2017-08-31T10:48:34.630Z,1.70
2017-08-31T10:51:08.436Z,2.23
2017-08-31T10:53:37.735Z,2.23
2017-08-31T10:56:06.523Z,1.83
2017-08-31T10:58:36.063Z,2.73
2017-08-31T11:01:06.932Z,2.10
2017-08-31T11:03:38.691Z,2.43
2017-08-31T11:06:07.990Z,1.70
2017-08-31T11:08:38.592Z,3.87
2017-08-31T11:11:10.000Z,2.50
2017-08-31T11:13:43.254Z,1.87
2017-08-31T11:16:13.382Z,2.13
2017-08-31T11:18:45.936Z,1.70
2017-08-31T11:21:17.131Z,2.10
2017-08-31T11:23:47.319Z,1.47
2017-08-31T11:26:17.029Z,1.63
2017-08-31T11:28:45.114Z,1.40
2017-08-31T11:31:14.645Z,3.97
2017-08-31T11:33:44.331Z,1.60
2017-08-31T11:36:12.873Z,1.80
2017-08-31T11:38:40.852Z,3.00
2017-08-31T11:41:11.426Z,1.40
2017-08-31T11:46:41.054Z,1.47
2017-08-31T11:49:11.171Z,2.20
2017-08-31T11:51:41.905Z,1.50
2017-08-31T11:54:13.224Z,1.90
2017-08-31T11:56:45.316Z,3.47
2017-08-31T11:59:16.576Z,4.13
2017-08-31T12:01:50.571Z,1.97
2017-08-31T12:04:21.325Z,2.57
2017-08-31T12:06:53.369Z,2.30
2017-08-31T12:09:22.463Z,2.30
2017-08-31T12:11:51.763Z,2.53
2017-08-31T12:14:21.063Z,2.30
2017-08-31T12:16:50.260Z,3.47
2017-08-31T12:19:21.198Z,2.80
2017-08-31T12:21:49.678Z,2.87
2017-08-31T12:24:17.647Z,2.90
2017-08-31T12:26:47.232Z,2.50
2017-08-31T12:29:15.734Z,2.70
2017-08-31T12:31:44.726Z,2.53
2017-08-31T12:34:15.050Z,2.73
2017-08-31T12:36:43.838Z,2.90
2017-08-31T12:39:12.317Z,3.10
2017-08-31T12:41:41.027Z,4.20
2017-08-31T12:44:09.467Z,2.77
2017-08-31T12:46:37.743Z,3.23
2017-08-31T12:49:06.224Z,3.47
2017-08-31T12:51:39.863Z,3.90
2017-08-31T12:54:13.136Z,3.27
2017-08-31T12:56:42.126Z,4.50
2017-08-31T12:59:11.015Z,2.80
2017-08-31T13:01:40.317Z,2.70
2017-08-31T13:04:08.055Z,3.80
2017-08-31T13:06:37.276Z,3.13
2017-08-31T13:09:05.551Z,5.43
2017-08-31T13:11:34.339Z,2.33
2017-08-31T13:14:02.819Z,1.50
2017-08-31T13:16:30.600Z,1.40
2017-08-31T13:18:59.881Z,1.50
2017-08-31T13:21:28.970Z,1.30
2017-08-31T13:24:01.960Z,2.17
2017-08-31T13:26:31.059Z,2.27
2017-08-31T13:28:59.431Z,3.90
2017-08-31T13:31:27.711Z,1.40
2017-08-31T13:33:56.705Z,1.57
2017-08-31T13:36:25.082Z,2.07
2017-08-31T13:38:53.972Z,2.43
2017-08-31T13:41:22.351Z,1.30
2017-08-31T13:43:50.393Z,1.53
2017-08-31T13:46:20.234Z,1.40
2017-08-31T13:48:48.611Z,1.87
2017-08-31T13:51:16.785Z,1.57
2017-08-31T13:53:45.163Z,1.83
2017-08-31T13:56:13.337Z,5.27
2017-08-31T13:58:41.715Z,1.53
2017-08-31T14:01:09.914Z,1.83
2017-08-31T14:03:38.987Z,1.40
2017-08-31T14:06:07.898Z,1.63
2017-08-31T14:08:36.255Z,2.40
2017-08-31T14:11:06.945Z,1.43
2017-08-31T14:13:37.949Z,2.20
2017-08-31T14:16:06.101Z,1.53
2017-08-31T14:18:36.109Z,1.87
2017-08-31T14:21:04.338Z,2.90
2017-08-31T14:23:31.736Z,5.83
2017-08-31T14:25:59.164Z,1.70
2017-08-31T14:28:26.994Z,2.57
2017-08-31T14:30:54.431Z,5.33
2017-08-31T14:33:21.874Z,1.53
2017-08-31T14:35:50.111Z,1.60
2017-08-31T14:38:17.539Z,1.53
2017-08-31T14:40:44.970Z,1.93
2017-08-31T14:43:12.404Z,1.87
2017-08-31T14:45:39.905Z,1.63
2017-08-31T14:48:07.328Z,3.03
2017-08-31T14:50:34.765Z,2.13
2017-08-31T14:53:02.183Z,1.43
2017-08-31T14:55:29.608Z,1.80
2017-08-31T14:57:57.041Z,1.60
2017-08-31T15:00:24.491Z,1.27
2017-08-31T15:02:51.947Z,2.97
2017-08-31T15:05:19.371Z,1.83
2017-08-31T15:07:46.803Z,2.17
2017-08-31T15:10:14.228Z,1.07
2017-08-31T15:12:41.648Z,1.80
2017-08-31T15:15:09.076Z,2.03
2017-08-31T15:17:36.494Z,1.43
2017-08-31T15:20:03.921Z,1.07
2017-08-31T15:22:31.347Z,0.80
2017-08-31T15:24:58.787Z,2.07
2017-08-31T15:27:26.283Z,2.20
2017-08-31T15:29:53.714Z,1.50
2017-08-31T15:32:21.140Z,1.30
2017-08-31T15:34:48.561Z,1.10
2017-08-31T15:37:16.008Z,1.63
2017-08-31T15:39:43.427Z,2.33
2017-08-31T15:42:10.854Z,1.43
2017-08-31T15:44:39.341Z,5.70
2017-08-31T15:47:06.763Z,4.30
2017-08-31T15:49:34.183Z,2.03
2017-08-31T15:52:01.611Z,8.37
2017-08-31T15:54:31.095Z,1.20
2017-08-31T15:56:58.531Z,2.17
2017-08-31T15:59:25.999Z,1.20
2017-08-31T16:01:53.428Z,1.30
2017-08-31T16:04:20.885Z,2.57
2017-08-31T16:06:48.320Z,1.20
2017-08-31T16:09:15.745Z,1.40
2017-08-31T16:11:43.170Z,1.27
2017-08-31T16:14:12.393Z,2.40
2017-08-31T16:16:39.819Z,1.40
2017-08-31T16:19:07.307Z,2.00
2017-08-31T16:21:34.741Z,1.50
2017-08-31T16:24:02.228Z,2.00
2017-08-31T16:26:29.654Z,2.40
2017-08-31T16:28:57.095Z,4.57
2017-08-31T16:31:24.519Z,3.57
2017-08-31T16:33:51.953Z,2.70
2017-08-31T16:36:19.401Z,1.47
2017-08-31T16:38:46.832Z,1.87
2017-08-31T16:41:14.272Z,1.50
2017-08-31T16:43:41.699Z,2.50
2017-08-31T16:46:09.120Z,2.60
2017-08-31T16:48:37.733Z,2.13
2017-08-31T16:51:05.163Z,1.40
2017-08-31T16:53:32.593Z,2.17
2017-08-31T16:56:05.987Z,2.13
2017-08-31T16:58:33.431Z,3.10
2017-08-31T17:01:00.856Z,2.10
2017-08-31T17:03:28.298Z,1.80
2017-08-31T17:05:55.733Z,1.30
2017-08-31T17:08:23.169Z,1.77
2017-08-31T17:10:50.615Z,1.30
2017-08-31T17:13:18.123Z,1.57
2017-08-31T17:15:45.557Z,2.27
2017-08-31T17:18:13.006Z,2.77
2017-08-31T17:20:40.431Z,2.80
2017-08-31T17:23:07.859Z,2.13
2017-08-31T17:25:35.293Z,2.20
2017-08-31T17:28:02.719Z,1.33
2017-08-31T17:30:30.147Z,2.93
2017-08-31T17:32:57.673Z,1.93
2017-08-31T17:35:25.128Z,3.13
2017-08-31T17:37:52.588Z,1.77
2017-08-31T17:40:20.020Z,4.17
2017-08-31T17:42:47.455Z,1.60
2017-08-31T17:45:14.889Z,1.60
2017-08-31T17:47:42.347Z,2.20
2017-08-31T17:50:09.776Z,1.60
2017-08-31T17:52:37.207Z,1.27
2017-08-31T17:55:04.638Z,1.80
2017-08-31T17:57:32.076Z,1.83
2017-08-31T17:59:59.513Z,1.73
2017-08-31T18:02:26.945Z,1.80
2017-08-31T18:04:54.378Z,2.47
2017-08-31T18:07:23.830Z,1.80
2017-08-31T18:09:51.236Z,1.90
2017-08-31T18:12:18.728Z,2.30
2017-08-31T18:14:46.159Z,1.60
2017-08-31T18:17:13.600Z,1.47
2017-08-31T18:19:41.052Z,4.93
2017-08-31T18:22:08.472Z,2.20
2017-08-31T18:24:35.917Z,1.73
2017-08-31T18:27:03.368Z,1.53
2017-08-31T18:29:30.791Z,1.77
2017-08-31T18:31:58.328Z,3.13
2017-08-31T18:34:25.748Z,1.70
2017-08-31T18:36:53.237Z,2.03
2017-08-31T18:39:20.655Z,1.97
2017-08-31T18:41:48.092Z,1.77
2017-08-31T18:44:15.567Z,2.10
2017-08-31T18:46:43.027Z,2.00
2017-08-31T18:49:10.485Z,2.27
2017-08-31T18:51:37.944Z,3.30
2017-08-31T18:54:05.360Z,2.40
2017-08-31T18:56:32.787Z,2.20
2017-08-31T18:59:00.245Z,3.53
2017-08-31T19:01:27.684Z,5.23
2017-08-31T19:03:55.103Z,2.77
2017-08-31T19:06:22.539Z,2.83
2017-08-31T19:08:49.968Z,2.47
2017-08-31T19:11:17.400Z,6.87
2017-08-31T19:13:46.791Z,4.50
2017-08-31T19:16:14.311Z,4.60
2017-08-31T19:18:41.738Z,5.90
2017-08-31T19:21:09.192Z,5.03
2017-08-31T19:23:36.614Z,25.83
2017-08-31T19:26:04.056Z,6.40
2017-08-31T19:28:31.490Z,5.10
2017-08-31T19:30:58.924Z,5.70
2017-08-31T19:33:26.356Z,5.47
2017-08-31T19:35:53.790Z,4.93
2017-08-31T19:38:21.232Z,4.43
2017-08-31T19:40:48.651Z,5.67
2017-08-31T19:43:16.108Z,7.83
2017-08-31T19:45:43.528Z,7.17
2017-08-31T19:48:10.969Z,8.63
2017-08-31T19:50:38.400Z,7.40
2017-08-31T19:53:05.832Z,6.13
2017-08-31T19:55:33.258Z,9.57
2017-08-31T19:58:00.687Z,9.97
2017-08-31T20:00:28.112Z,8.23
2017-08-31T20:02:55.552Z,18.53
2017-08-31T20:05:22.988Z,20.93
2017-08-31T20:07:50.465Z,25.50
2017-08-31T20:10:17.892Z,21.17
2017-08-31T20:12:45.338Z,23.30
2017-08-31T20:15:12.772Z,20.10
2017-08-31T20:17:40.228Z,24.83
2017-08-31T20:20:07.656Z,12.93
2017-08-31T20:22:35.095Z,14.03
2017-08-31T20:25:02.524Z,10.70
2017-08-31T20:27:29.964Z,9.60
2017-08-31T20:29:57.392Z,10.93
2017-08-31T20:32:24.831Z,9.17
2017-08-31T20:34:52.280Z,12.33
2017-08-31T20:37:19.717Z,8.40
2017-08-31T20:39:50.164Z,7.20
2017-08-31T20:42:17.609Z,5.90
2017-08-31T20:44:45.042Z,8.10
2017-08-31T20:47:16.115Z,6.37
2017-08-31T20:49:43.547Z,11.07
2017-08-31T20:52:10.979Z,6.73
2017-08-31T20:54:38.418Z,8.50
2017-08-31T20:57:05.853Z,7.33
2017-08-31T20:59:33.283Z,5.03
2017-08-31T21:02:00.712Z,5.40
2017-08-31T21:04:28.154Z,4.97
2017-08-31T21:06:55.571Z,3.50
2017-08-31T21:09:23.012Z,4.60
2017-08-31T21:11:50.448Z,5.43
2017-08-31T21:14:17.881Z,4.83
2017-08-31T21:16:45.300Z,4.43
2017-08-31T21:19:12.731Z,3.37
2017-08-31T21:21:40.161Z,3.70
2017-08-31T21:24:07.600Z,3.47
2017-08-31T21:26:35.024Z,3.90
2017-08-31T21:29:02.461Z,4.20
2017-08-31T21:31:29.879Z,5.77
2017-08-31T21:33:57.314Z,3.83
2017-08-31T21:36:24.732Z,3.07
2017-08-31T21:38:52.161Z,4.30
2017-08-31T21:41:19.586Z,2.47
2017-08-31T21:43:47.007Z,3.13
2017-08-31T21:46:14.440Z,3.70
2017-08-31T21:48:41.859Z,4.93
2017-08-31T21:51:09.279Z,3.83
2017-08-31T21:53:36.707Z,3.47
2017-08-31T21:56:04.139Z,4.30
2017-08-31T21:58:31.586Z,2.80
2017-08-31T22:00:59.012Z,3.80
2017-08-31T22:03:26.459Z,3.00
2017-08-31T22:05:53.879Z,5.50
2017-08-31T22:08:29.131Z,2.77
2017-08-31T22:10:56.569Z,4.13
2017-08-31T22:13:23.998Z,5.90
2017-08-31T22:15:51.424Z,3.00
2017-08-31T22:18:18.888Z,4.83
2017-08-31T22:20:46.319Z,3.53
2017-08-31T22:23:13.753Z,3.23
2017-08-31T22:25:41.192Z,4.00
2017-08-31T22:28:08.621Z,6.57
2017-08-31T22:30:36.063Z,4.93
2017-08-31T22:33:03.485Z,2.33
2017-08-31T22:35:30.929Z,9.10
2017-08-31T22:37:58.371Z,5.30
2017-08-31T22:40:25.814Z,7.17
2017-08-31T22:42:53.244Z,5.10
2017-08-31T22:45:20.680Z,4.07
2017-08-31T22:47:48.111Z,4.33
2017-08-31T22:50:15.571Z,5.20
2017-08-31T22:52:42.975Z,3.00
2017-08-31T22:55:18.316Z,4.13
2017-08-31T22:57:57.648Z,3.57
2017-08-31T23:00:35.016Z,3.70
2017-08-31T23:03:02.452Z,3.53
2017-08-31T23:05:29.884Z,3.30
2017-08-31T23:07:57.321Z,3.80
2017-08-31T23:10:24.760Z,5.30
2017-08-31T23:12:52.191Z,3.63
2017-08-31T23:15:34.787Z,4.13
2017-08-31T23:18:02.220Z,7.27
2017-08-31T23:20:29.678Z,5.13
2017-08-31T23:22:57.104Z,4.67
2017-08-31T23:25:24.545Z,6.07
2017-08-31T23:27:51.976Z,4.00
2017-08-31T23:30:19.426Z,10.63
2017-08-31T23:32:46.845Z,6.13
2017-08-31T23:35:14.279Z,4.07
2017-08-31T23:37:41.704Z,2.73
2017-08-31T23:40:09.137Z,4.37
2017-08-31T23:42:36.560Z,3.70
2017-08-31T23:45:03.999Z,3.80
2017-08-31T23:47:31.428Z,3.23
2017-08-31T23:49:58.869Z,4.13
2017-08-31T23:52:31.310Z,3.37
2017-08-31T23:54:58.749Z,4.50
2017-08-31T23:57:26.171Z,6.13
2017-08-31T23:59:53.622Z,3.73
